Time;durP1;ratioP1;P1;durP2;ratioP2;P2;SDS_P1;SDS_P2;PMS_P1;PMS_P2;Temp;Humidity;BMP_temperature;BMP_pressure;BME280_temperature;BME280_humidity;BME280_pressure;Samples;Min_cycle;Max_cycle;Signal;HPM_P1;HPM_P2
2022/08/02 00:00:35;;;;;;;8.47;5.17;;;20.80;99.90;;;;;;4978938;28;20204;-73
2022/08/02 00:03:01;;;;;;;8.13;5.67;;;20.70;99.90;;;;;;4996257;28;20185;-74
2022/08/02 00:05:28;;;;;;;7.70;5.40;;;20.70;99.90;;;;;;4978694;28;20209;-73
2022/08/02 00:07:55;;;;;;;9.20;5.80;;;20.70;99.90;;;;;;4996273;28;20316;-73
2022/08/02 00:10:22;;;;;;;9.50;5.80;;;20.70;99.90;;;;;;4978330;28;20555;-74
2022/08/02 00:12:49;;;;;;;7.53;5.37;;;20.70;99.90;;;;;;4978471;28;20201;-73
2022/08/02 00:15:18;;;;;;;6.83;5.20;;;20.70;99.90;;;;;;4978803;28;20208;-74
2022/08/02 00:17:45;;;;;;;9.70;5.50;;;20.60;99.90;;;;;;4978634;28;20697;-73
2022/08/02 00:20:14;;;;;;;9.20;5.60;;;20.60;99.90;;;;;;4979213;28;20203;-74
2022/08/02 00:22:41;;;;;;;13.17;5.80;;;20.60;99.90;;;;;;4978320;28;20235;-73
2022/08/02 00:25:09;;;;;;;9.00;5.70;;;20.60;99.90;;;;;;4978339;28;20287;-74
2022/08/02 00:27:35;;;;;;;9.33;5.90;;;20.50;99.90;;;;;;4996084;28;20267;-73
2022/08/02 00:30:03;;;;;;;10.00;5.57;;;20.50;99.90;;;;;;4978594;28;20231;-74
2022/08/02 00:32:30;;;;;;;8.70;5.90;;;20.50;99.90;;;;;;4978200;28;20665;-74
2022/08/02 00:34:57;;;;;;;14.67;6.27;;;20.50;99.90;;;;;;4978330;28;20296;-73
2022/08/02 00:37:23;;;;;;;10.87;5.70;;;20.50;99.90;;;;;;4978426;28;20570;-73
2022/08/02 00:39:50;;;;;;;7.20;5.40;;;20.50;99.90;;;;;;4977979;28;20216;-75
2022/08/02 00:42:17;;;;;;;9.20;5.97;;;20.60;99.90;;;;;;4978359;28;20209;-73
2022/08/02 00:44:44;;;;;;;11.03;6.30;;;20.60;99.90;;;;;;4995504;28;20189;-74
2022/08/02 00:47:11;;;;;;;9.57;6.10;;;20.50;99.90;;;;;;4962838;28;20201;-74
2022/08/02 00:49:45;;;;;;;10.70;6.63;;;20.50;99.90;;;;;;4959003;28;20276;-74
2022/08/02 00:52:12;;;;;;;11.93;6.90;;;20.50;99.90;;;;;;4958602;28;20295;-74
2022/08/02 00:54:40;;;;;;;20.70;6.97;;;20.40;99.90;;;;;;4958738;28;20300;-73
2022/08/02 00:57:07;;;;;;;12.33;6.47;;;20.40;99.90;;;;;;4958591;28;20197;-73
2022/08/02 00:59:34;;;;;;;17.00;7.07;;;20.40;99.90;;;;;;4958573;28;20206;-73
2022/08/02 01:02:00;;;;;;;7.87;5.97;;;20.30;99.90;;;;;;4975624;28;20204;-73
2022/08/02 01:04:27;;;;;;;8.37;6.00;;;20.30;99.90;;;;;;4958338;28;20197;-73
2022/08/02 01:07:05;;;;;;;10.03;6.13;;;20.30;99.90;;;;;;4957701;28;20201;-74
2022/08/02 01:09:44;;;;;;;9.03;6.37;;;20.20;99.90;;;;;;4958258;28;20201;-73
2022/08/02 01:12:12;;;;;;;11.67;6.60;;;20.30;99.90;;;;;;4975237;28;20563;-73
2022/08/02 01:14:42;;;;;;;14.57;6.10;;;20.30;99.90;;;;;;4975387;28;20194;-73
2022/08/02 01:17:37;;;;;;;16.57;7.00;;;20.30;99.90;;;;;;4958260;28;20679;-73
2022/08/02 01:20:45;;;;;;;9.77;6.50;;;20.30;99.90;;;;;;4958539;28;20285;-72
2022/08/02 01:23:51;;;;;;;10.60;6.93;;;20.30;99.90;;;;;;4958170;28;20235;-74
2022/08/02 01:26:33;;;;;;;11.37;6.70;;;20.30;99.90;;;;;;4918822;29;20210;-73
2022/08/02 01:29:03;;;;;;;10.43;6.40;;;20.30;99.90;;;;;;4934723;29;20206;-73
2022/08/02 01:31:49;;;;;;;9.77;6.70;;;20.30;99.90;;;;;;4934634;29;20237;-73
2022/08/02 01:34:50;;;;;;;9.73;6.60;;;20.30;99.90;;;;;;4918889;29;20194;-73
2022/08/02 01:37:55;;;;;;;11.43;6.40;;;20.20;99.90;;;;;;4896829;29;20563;-73
2022/08/02 01:40:38;;;;;;;9.87;5.97;;;20.20;99.90;;;;;;4840879;29;20324;-73
2022/08/02 01:43:21;;;;;;;10.00;6.33;;;20.20;99.90;;;;;;4840698;29;20304;-73
2022/08/02 01:46:04;;;;;;;7.53;5.80;;;20.10;99.90;;;;;;4825484;29;20266;-73
2022/08/02 01:48:47;;;;;;;9.20;6.30;;;20.10;99.90;;;;;;4840648;29;20206;-73
2022/08/02 01:54:32;;;;;;;9.53;6.27;;;20.00;99.90;;;;;;4825484;29;20293;-73
2022/08/02 01:57:15;;;;;;;9.80;6.47;;;20.00;99.90;;;;;;4825241;29;20214;-74
2022/08/02 01:59:59;;;;;;;9.43;6.20;;;20.00;99.90;;;;;;4840395;29;20198;-74
2022/08/02 02:02:43;;;;;;;9.80;6.50;;;20.00;99.90;;;;;;4828929;29;20333;-73
2022/08/02 02:05:15;;;;;;;11.00;6.33;;;20.00;99.90;;;;;;4859191;29;20205;-73
2022/08/02 02:07:44;;;;;;;8.20;6.30;;;19.90;99.90;;;;;;4843938;29;20206;-74
2022/08/02 02:10:14;;;;;;;17.67;7.30;;;19.90;99.90;;;;;;4843384;29;20222;-74
2022/08/02 02:12:45;;;;;;;10.73;6.67;;;19.80;99.90;;;;;;4847670;29;20365;-73
2022/08/02 02:15:13;;;;;;;13.23;7.00;;;19.80;99.90;;;;;;4895147;28;20198;-73
2022/08/02 02:17:46;;;;;;;7.87;6.27;;;19.70;99.90;;;;;;4957170;28;20212;-73
2022/08/02 02:20:33;;;;;;;7.63;6.40;;;19.70;99.90;;;;;;4957278;28;20197;-73
2022/08/02 02:23:00;;;;;;;7.77;6.40;;;19.60;99.90;;;;;;4957054;28;20684;-74
2022/08/02 02:25:30;;;;;;;10.07;6.47;;;19.50;99.90;;;;;;4957505;28;20215;-74
2022/08/02 02:28:05;;;;;;;14.10;6.80;;;19.50;99.90;;;;;;4957477;28;20256;-73
2022/08/02 02:30:34;;;;;;;9.30;6.73;;;19.40;99.90;;;;;;4957112;28;20221;-74
2022/08/02 02:33:04;;;;;;;11.83;6.50;;;19.40;99.90;;;;;;4956914;28;20209;-73
2022/08/02 02:35:35;;;;;;;10.30;6.90;;;19.30;99.90;;;;;;4956872;28;20198;-73
2022/08/02 02:38:05;;;;;;;7.80;6.50;;;19.20;99.90;;;;;;4956926;28;20209;-74
2022/08/02 02:40:35;;;;;;;8.90;6.97;;;19.20;99.90;;;;;;4957329;28;20284;-74
2022/08/02 02:43:03;;;;;;;10.73;6.70;;;19.20;99.90;;;;;;4956952;28;20503;-74
2022/08/02 02:45:32;;;;;;;15.20;7.50;;;19.10;99.90;;;;;;4957029;28;20300;-74
2022/08/02 02:48:00;;;;;;;10.03;6.93;;;19.10;99.90;;;;;;4956963;28;20283;-74
2022/08/02 02:50:29;;;;;;;9.47;6.80;;;19.00;99.90;;;;;;4956938;28;20323;-74
2022/08/02 02:52:57;;;;;;;8.30;6.37;;;19.10;99.90;;;;;;4956759;28;20682;-73
2022/08/02 02:55:25;;;;;;;9.23;6.63;;;19.10;99.90;;;;;;4956860;28;20256;-72
2022/08/02 02:57:53;;;;;;;15.60;7.13;;;19.10;99.90;;;;;;4956819;28;20225;-73
2022/08/02 03:01:26;;;;;;;7.60;6.40;;;19.10;99.90;;;;;;4957035;28;20216;-74
2022/08/02 03:03:08;;;;;;;17.60;7.63;;;19.10;99.90;;;;;;4956758;28;20225;-73
2022/08/02 03:05:36;;;;;;;8.53;6.30;;;19.20;99.90;;;;;;4974103;28;20228;-73
2022/08/02 03:08:03;;;;;;;11.43;6.33;;;19.20;99.90;;;;;;4956493;28;20237;-74
2022/08/02 03:10:31;;;;;;;11.03;6.90;;;19.20;99.90;;;;;;4957125;28;20225;-73
2022/08/02 03:12:58;;;;;;;16.87;7.13;;;19.30;99.90;;;;;;4957051;28;20198;-74
2022/08/02 03:15:27;;;;;;;9.97;6.70;;;19.30;99.90;;;;;;4956560;28;20206;-73
2022/08/02 03:17:54;;;;;;;11.23;6.80;;;19.30;99.90;;;;;;4957216;28;20215;-73
2022/08/02 03:20:24;;;;;;;9.60;7.10;;;19.30;99.90;;;;;;4956698;28;20210;-73
2022/08/02 03:22:51;;;;;;;10.83;6.47;;;19.40;99.90;;;;;;4956635;28;20320;-73
2022/08/02 03:25:18;;;;;;;10.53;6.43;;;19.40;99.90;;;;;;4956816;28;20212;-73
2022/08/02 03:27:46;;;;;;;11.43;6.73;;;19.40;99.90;;;;;;4956961;28;20205;-74
2022/08/02 03:30:14;;;;;;;9.47;6.70;;;19.40;99.90;;;;;;4975341;28;20535;-73
2022/08/02 03:32:44;;;;;;;9.27;6.60;;;19.40;99.90;;;;;;4977729;28;20685;-73
2022/08/02 03:35:14;;;;;;;9.27;6.70;;;19.40;99.90;;;;;;4959896;28;20643;-73
2022/08/02 03:37:53;;;;;;;10.10;6.17;;;19.40;99.90;;;;;;4977457;28;20189;-74
2022/08/02 03:40:21;;;;;;;8.87;6.40;;;19.50;99.90;;;;;;4959825;28;20288;-74
2022/08/02 03:42:49;;;;;;;8.37;6.63;;;19.50;99.90;;;;;;4959601;28;20296;-74
2022/08/02 03:45:17;;;;;;;9.13;6.50;;;19.50;99.90;;;;;;4959856;28;20647;-74
2022/08/02 03:47:44;;;;;;;9.17;6.30;;;19.60;99.90;;;;;;4960181;28;20213;-74
2022/08/02 03:50:12;;;;;;;9.50;7.00;;;19.60;99.90;;;;;;4960361;28;20201;-74
2022/08/02 03:52:41;;;;;;;11.63;7.10;;;19.60;99.90;;;;;;4976837;28;20564;-74
2022/08/02 03:55:10;;;;;;;17.10;8.13;;;19.70;99.90;;;;;;4959890;28;20557;-74
2022/08/02 03:57:38;;;;;;;28.67;9.07;;;19.70;99.90;;;;;;4959941;28;20255;-73
2022/08/02 04:00:07;;;;;;;10.13;7.80;;;19.70;99.90;;;;;;4977038;28;20189;-74
2022/08/02 04:02:35;;;;;;;9.27;7.70;;;19.70;99.90;;;;;;4959508;28;20205;-74
2022/08/02 04:05:02;;;;;;;9.70;7.70;;;19.70;99.90;;;;;;4959717;28;20205;-74
2022/08/02 04:07:30;;;;;;;9.53;7.60;;;19.80;99.90;;;;;;4959507;28;20770;-74
2022/08/02 04:10:17;;;;;;;19.13;9.30;;;19.80;99.90;;;;;;4959405;28;20780;-73
2022/08/02 04:12:44;;;;;;;15.30;9.27;;;19.80;99.90;;;;;;4959091;28;20299;-74
2022/08/02 04:15:13;;;;;;;10.67;8.73;;;19.80;99.90;;;;;;4959146;28;20190;-73
2022/08/02 04:17:44;;;;;;;12.83;9.03;;;19.70;99.90;;;;;;4959296;28;20308;-73
2022/08/02 04:20:17;;;;;;;13.27;8.67;;;19.70;99.90;;;;;;4959281;28;20300;-73
2022/08/02 04:22:53;;;;;;;11.93;9.00;;;19.80;99.90;;;;;;4958937;28;20210;-74
2022/08/02 04:25:22;;;;;;;10.93;8.87;;;19.80;99.90;;;;;;4959063;28;20202;-73
2022/08/02 04:28:07;;;;;;;12.53;9.13;;;19.80;99.90;;;;;;4976416;28;20225;-74
2022/08/02 04:30:45;;;;;;;11.57;9.17;;;19.80;99.90;;;;;;4959278;28;20256;-73
2022/08/02 04:33:13;;;;;;;11.73;8.70;;;19.80;99.90;;;;;;4958584;28;20197;-74
2022/08/02 04:35:40;;;;;;;14.13;9.47;;;19.80;99.90;;;;;;4959353;28;20194;-73
2022/08/02 04:38:07;;;;;;;10.07;8.57;;;19.80;99.90;;;;;;4958639;28;20209;-74
2022/08/02 04:40:37;;;;;;;11.13;8.30;;;19.90;99.90;;;;;;4976013;28;20550;-74
2022/08/02 04:43:03;;;;;;;13.63;8.60;;;19.80;99.90;;;;;;4959080;28;20228;-73
2022/08/02 04:45:31;;;;;;;16.57;8.70;;;19.90;99.90;;;;;;4958743;28;20292;-73
2022/08/02 04:47:58;;;;;;;11.17;8.17;;;19.90;99.90;;;;;;4958857;28;20601;-75
2022/08/02 04:50:31;;;;;;;10.00;8.07;;;19.90;99.90;;;;;;4960497;28;20296;-75
2022/08/02 04:52:58;;;;;;;14.07;8.43;;;20.00;99.90;;;;;;4958591;28;20671;-76
2022/08/02 04:55:27;;;;;;;11.73;8.70;;;20.00;99.90;;;;;;4975667;28;20726;-74
2022/08/02 04:57:56;;;;;;;12.07;8.87;;;20.00;99.90;;;;;;4975818;28;20244;-74
2022/08/02 05:00:25;;;;;;;11.23;8.70;;;20.00;99.90;;;;;;4958213;28;20659;-74
2022/08/02 05:02:52;;;;;;;11.23;7.93;;;20.00;99.90;;;;;;4958217;28;20260;-74
2022/08/02 05:05:19;;;;;;;11.80;8.03;;;20.10;99.90;;;;;;4958200;28;20620;-74
2022/08/02 05:07:46;;;;;;;11.00;8.20;;;20.10;99.90;;;;;;4958256;28;20186;-74
2022/08/02 05:10:14;;;;;;;13.80;8.67;;;20.20;99.90;;;;;;4958068;28;20208;-73
2022/08/02 05:12:41;;;;;;;14.50;8.40;;;20.20;99.90;;;;;;4975151;28;20221;-74
2022/08/02 05:15:10;;;;;;;12.77;8.97;;;20.30;99.90;;;;;;4957863;28;20204;-74
2022/08/02 05:17:39;;;;;;;15.53;9.93;;;20.40;99.90;;;;;;4958512;28;20202;-74
2022/08/02 05:20:15;;;;;;;10.53;8.87;;;20.30;99.90;;;;;;4958068;28;20619;-73
2022/08/02 05:22:43;;;;;;;13.90;9.00;;;20.50;99.90;;;;;;4957749;28;20225;-74
2022/08/02 05:25:10;;;;;;;12.20;8.77;;;20.50;99.90;;;;;;4957830;28;20208;-74
2022/08/02 05:27:37;;;;;;;12.53;8.80;;;20.50;99.90;;;;;;4958053;28;20615;-75
2022/08/02 05:30:05;;;;;;;11.33;8.47;;;20.60;99.90;;;;;;4957883;28;20273;-74
2022/08/02 05:32:32;;;;;;;15.17;9.03;;;20.60;99.90;;;;;;4957396;28;20225;-74
2022/08/02 05:35:02;;;;;;;11.23;8.67;;;20.60;99.90;;;;;;4957598;28;20198;-75
2022/08/02 05:37:30;;;;;;;10.43;8.00;;;20.60;99.90;;;;;;4975138;28;20269;-76
2022/08/02 05:40:00;;;;;;;12.37;8.70;;;20.70;99.90;;;;;;4957601;28;20658;-74
2022/08/02 05:42:31;;;;;;;13.53;8.70;;;20.80;99.90;;;;;;4974682;28;20270;-73
2022/08/02 05:44:58;;;;;;;12.90;8.67;;;20.90;99.90;;;;;;4957447;28;20291;-73
2022/08/02 05:47:25;;;;;;;9.23;7.90;;;20.90;99.90;;;;;;4975110;28;20228;-73
2022/08/02 05:49:52;;;;;;;12.37;8.70;;;21.00;99.90;;;;;;4958159;28;20206;-73
2022/08/02 05:52:21;;;;;;;12.47;8.57;;;21.00;99.90;;;;;;4956695;28;20243;-74
2022/08/02 05:55:00;;;;;;;12.10;9.40;;;21.10;99.90;;;;;;4957364;28;20206;-74
2022/08/02 05:57:49;;;;;;;11.27;9.40;;;21.20;99.90;;;;;;4974833;28;20197;-74
2022/08/02 06:00:16;;;;;;;11.63;8.90;;;21.10;99.90;;;;;;4957278;28;20259;-73
2022/08/02 06:02:47;;;;;;;11.57;8.80;;;21.20;99.90;;;;;;4957013;28;20306;-73
2022/08/02 06:05:17;;;;;;;17.77;9.23;;;21.30;99.90;;;;;;4957501;28;20208;-73
2022/08/02 06:07:46;;;;;;;11.50;8.50;;;21.30;99.90;;;;;;4957078;28;20308;-73
2022/08/02 06:10:15;;;;;;;16.57;10.10;;;21.40;99.90;;;;;;4974344;28;20288;-73
2022/08/02 06:12:53;;;;;;;13.57;9.27;;;21.40;99.90;;;;;;4974171;28;20300;-75
2022/08/02 06:15:19;;;;;;;12.70;8.77;;;21.50;99.90;;;;;;4957029;28;20674;-76
2022/08/02 06:17:47;;;;;;;9.03;7.60;;;21.60;99.90;;;;;;4957195;28;20288;-74
2022/08/02 06:20:17;;;;;;;11.87;7.67;;;21.80;99.90;;;;;;4956906;28;20241;-75
2022/08/02 06:22:44;;;;;;;10.90;7.30;;;21.90;99.90;;;;;;4956917;28;20316;-74
2022/08/02 06:25:13;;;;;;;10.40;8.13;;;22.20;99.90;;;;;;4957434;28;20662;-75
2022/08/02 06:28:01;;;;;;;12.13;8.33;;;22.40;99.90;;;;;;4974146;28;20208;-74
2022/08/02 06:30:30;;;;;;;10.53;7.97;;;22.60;99.90;;;;;;4956944;28;20252;-74
2022/08/02 06:32:59;;;;;;;9.32;7.80;;;22.90;99.90;;;;;;4956745;28;20225;-75
2022/08/02 06:35:49;;;;;;;12.67;8.57;;;23.00;99.90;;;;;;4957194;28;20206;-75
2022/08/02 06:38:24;;;;;;;8.80;7.45;;;23.00;99.90;;;;;;4956781;28;20193;-74
2022/08/02 06:41:06;;;;;;;9.47;7.27;;;23.10;99.90;;;;;;4956714;28;20205;-75
2022/08/02 06:43:59;;;;;;;8.37;6.70;;;23.10;99.90;;;;;;4973766;28;20627;-75
2022/08/02 06:46:45;;;;;;;10.20;6.40;;;23.20;99.90;;;;;;4973854;28;20193;-74
2022/08/02 06:49:33;;;;;;;8.55;6.30;;;23.30;99.90;;;;;;4973926;28;20189;-75
2022/08/02 06:52:29;;;;;;;7.00;5.63;;;23.40;99.90;;;;;;4956326;28;20240;-76
2022/08/02 06:55:04;;;;;;;6.05;4.93;;;23.60;99.90;;;;;;4956860;28;20206;-75
2022/08/02 06:57:32;;;;;;;6.65;4.68;;;23.70;99.90;;;;;;4957138;28;20627;-74
2022/08/02 07:00:05;;;;;;;6.43;4.97;;;23.80;99.90;;;;;;4956923;28;20240;-74
2022/08/02 07:02:35;;;;;;;7.10;4.10;;;24.00;99.90;;;;;;4957013;28;20205;-76
2022/08/02 07:05:02;;;;;;;7.65;4.88;;;24.10;99.90;;;;;;4958884;28;20201;-74
2022/08/02 07:07:29;;;;;;;6.80;4.20;;;24.20;99.90;;;;;;4960823;28;20631;-77
2022/08/02 07:09:57;;;;;;;7.35;4.55;;;24.20;99.90;;;;;;4960513;28;20649;-76
2022/08/02 07:12:29;;;;;;;6.53;4.53;;;24.30;99.90;;;;;;4960120;28;20284;-75
2022/08/02 07:14:58;;;;;;;5.55;3.90;;;24.30;99.90;;;;;;4960047;28;20202;-72
2022/08/02 07:17:25;;;;;;;6.60;4.30;;;24.50;99.90;;;;;;4960390;28;20209;-74
2022/08/02 07:19:52;;;;;;;5.53;3.78;;;24.50;99.90;;;;;;4960378;28;20300;-73
2022/08/02 07:22:22;;;;;;;5.07;3.80;;;24.50;99.90;;;;;;4960159;28;20285;-74
2022/08/02 07:24:50;;;;;;;4.65;3.65;;;24.70;99.90;;;;;;4960914;28;20201;-71
2022/08/02 07:27:17;;;;;;;11.15;4.30;;;24.80;99.90;;;;;;4960078;28;20339;-72
2022/08/02 07:29:45;;;;;;;7.30;3.90;;;24.90;99.90;;;;;;4960313;28;20231;-75
2022/08/02 07:32:18;;;;;;;4.63;3.72;;;25.00;99.90;;;;;;4959992;28;20299;-74
2022/08/02 07:34:46;;;;;;;5.70;3.65;;;24.90;99.90;;;;;;4960089;28;20202;-75
2022/08/02 07:37:28;;;;;;;4.18;3.60;;;24.80;99.90;;;;;;4977608;28;20193;-73
2022/08/02 07:40:15;;;;;;;4.90;3.20;;;24.70;99.90;;;;;;4959502;28;20194;-73
2022/08/02 07:42:48;;;;;;;5.20;2.90;;;24.60;99.90;;;;;;4959981;28;20197;-72
2022/08/02 07:45:15;;;;;;;6.30;3.00;;;24.60;99.90;;;;;;4977114;28;20194;-74
2022/08/02 07:47:43;;;;;;;3.97;3.10;;;24.70;99.90;;;;;;4943778;28;20663;-75
2022/08/02 07:50:11;;;;;;;5.05;3.40;;;24.70;99.90;;;;;;4977254;28;20656;-76
2022/08/02 07:52:40;;;;;;;5.90;2.75;;;24.60;99.90;;;;;;4958903;28;20312;-76
2022/08/02 07:55:08;;;;;;;5.90;3.10;;;24.70;99.90;;;;;;4959468;28;20201;-77
2022/08/02 07:57:36;;;;;;;7.07;2.97;;;24.80;99.90;;;;;;4977342;28;20283;-77
2022/08/02 08:00:10;;;;;;;6.35;3.00;;;24.70;99.90;;;;;;4977443;28;20233;-76
2022/08/02 08:02:38;;;;;;;7.30;3.08;;;24.80;99.90;;;;;;4959839;28;20212;-76
2022/08/02 08:05:07;;;;;;;9.48;3.22;;;24.90;99.90;;;;;;4944181;28;20206;-75
2022/08/02 08:07:34;;;;;;;4.18;2.78;;;24.90;99.90;;;;;;4959844;28;20202;-76
2022/08/02 08:10:09;;;;;;;5.13;2.90;;;24.90;99.90;;;;;;4960280;28;20197;-78
2022/08/02 08:12:54;;;;;;;7.22;2.95;;;25.00;99.90;;;;;;4959775;28;20229;-78
2022/08/02 08:15:21;;;;;;;13.80;3.67;;;25.20;99.90;;;;;;4959755;28;20658;-77
2022/08/02 08:17:48;;;;;;;4.05;2.97;;;25.10;99.90;;;;;;4989347;23;20264;-78
2022/08/02 08:20:15;;;;;;;4.65;2.70;;;25.20;99.90;;;;;;4996081;28;20735;-77
2022/08/02 08:22:42;;;;;;;5.03;2.83;;;25.80;99.90;;;;;;4995089;28;20224;-85
2022/08/02 08:25:09;;;;;;;3.00;2.60;;;26.30;99.90;;;;;;4995543;28;20251;-77
2022/08/02 08:27:36;;;;;;;4.60;3.13;;;27.10;99.90;;;;;;4997868;28;20200;-77
2022/08/02 08:30:04;;;;;;;4.05;2.72;;;28.10;99.90;;;;;;4995948;28;20662;-81
2022/08/02 08:32:31;;;;;;;5.85;3.00;;;28.80;99.90;;;;;;4994730;28;20225;-76
2022/08/02 08:34:58;;;;;;;4.35;2.58;;;29.60;99.90;;;;;;4994537;28;20235;-78
2022/08/02 08:37:26;;;;;;;4.80;2.60;;;30.20;99.90;;;;;;4995970;28;20196;-81
2022/08/02 08:39:53;;;;;;;3.05;2.40;;;30.50;99.90;;;;;;4996193;28;20265;-73
2022/08/02 08:42:30;;;;;;;4.68;2.83;;;30.70;97.70;;;;;;4994899;28;20197;-80
2022/08/02 08:44:58;;;;;;;3.20;2.90;;;30.90;97.80;;;;;;4994605;28;20197;-79
2022/08/02 08:47:37;;;;;;;3.63;2.70;;;31.30;96.40;;;;;;4994073;28;20189;-75
2022/08/02 08:50:15;;;;;;;3.00;2.67;;;31.60;95.00;;;;;;4994256;28;20223;-74
2022/08/02 08:53:05;;;;;;;2.88;2.58;;;31.70;95.10;;;;;;4995216;28;20283;-78
2022/08/02 08:55:35;;;;;;;2.63;2.17;;;32.10;93.90;;;;;;4975389;28;20206;-73
2022/08/02 08:58:03;;;;;;;3.83;2.58;;;32.50;94.30;;;;;;4975988;28;20190;-79
2022/08/02 09:00:33;;;;;;;3.65;2.45;;;32.70;92.80;;;;;;4976544;28;20549;-77
2022/08/02 09:03:03;;;;;;;3.83;2.65;;;32.80;91.70;;;;;;4976196;28;20201;-77
2022/08/02 09:05:32;;;;;;;7.57;2.97;;;32.90;90.30;;;;;;4974613;28;20201;-78
2022/08/02 09:07:59;;;;;;;3.30;2.30;;;32.90;88.70;;;;;;4974701;28;20256;-75
2022/08/02 09:10:44;;;;;;;4.20;2.50;;;33.10;88.10;;;;;;4975670;28;20198;-81
2022/08/02 09:13:17;;;;;;;4.68;2.42;;;33.10;84.90;;;;;;4974530;28;20233;-75
2022/08/02 09:16:05;;;;;;;7.28;2.80;;;33.10;84.80;;;;;;4975515;28;20248;-76
2022/08/02 09:18:44;;;;;;;3.75;2.40;;;33.20;88.00;;;;;;4957347;28;20770;-76
2022/08/02 09:21:13;;;;;;;4.95;2.50;;;33.30;85.10;;;;;;4955447;29;20202;-80
2022/08/02 09:23:45;;;;;;;4.38;2.80;;;33.50;84.20;;;;;;4956339;28;20277;-78
2022/08/02 09:26:16;;;;;;;3.63;2.60;;;33.60;80.40;;;;;;4955054;29;20202;-79
2022/08/02 09:28:46;;;;;;;3.30;2.60;;;33.70;80.60;;;;;;4954322;29;20187;-76
2022/08/02 09:31:17;;;;;;;4.72;2.70;;;33.60;81.30;;;;;;4956016;28;20256;-77
2022/08/02 09:33:53;;;;;;;6.30;2.83;;;33.20;76.90;;;;;;4954715;28;20241;-78
2022/08/02 09:36:22;;;;;;;3.33;2.70;;;33.30;77.40;;;;;;4939211;29;20197;-79
2022/08/02 09:39:00;;;;;;;3.92;2.63;;;33.30;77.30;;;;;;4955141;28;20209;-78
2022/08/02 09:41:33;;;;;;;4.45;2.60;;;33.30;74.60;;;;;;4956025;29;20248;-77
2022/08/02 09:44:05;;;;;;;3.50;2.58;;;33.30;73.80;;;;;;4938809;29;20198;-77
2022/08/02 09:46:36;;;;;;;3.53;2.70;;;33.00;74.00;;;;;;4954463;28;20280;-77
2022/08/02 09:49:09;;;;;;;9.07;2.80;;;32.80;73.10;;;;;;4955676;28;20548;-77
2022/08/02 09:51:48;;;;;;;4.03;2.80;;;33.00;74.30;;;;;;4954375;29;20206;-75
2022/08/02 09:54:24;;;;;;;3.97;2.60;;;33.00;75.10;;;;;;4955513;29;20687;-77
2022/08/02 09:56:53;;;;;;;3.25;2.75;;;33.10;75.10;;;;;;4954302;29;20225;-77
2022/08/02 09:59:23;;;;;;;3.92;2.60;;;33.20;76.80;;;;;;4954308;28;20513;-75
2022/08/02 10:01:55;;;;;;;5.43;3.85;;;33.30;74.60;;;;;;4970046;28;20321;-77
2022/08/02 10:04:42;;;;;;;4.18;2.78;;;33.50;74.00;;;;;;4974750;28;20201;-77
2022/08/02 10:07:21;;;;;;;9.93;3.30;;;33.60;73.20;;;;;;4973312;28;20205;-77
2022/08/02 10:09:50;;;;;;;4.68;2.85;;;33.80;70.20;;;;;;4973259;28;20202;-77
2022/08/02 10:12:23;;;;;;;4.57;2.67;;;33.90;67.90;;;;;;4973274;28;20740;-81
2022/08/02 10:14:53;;;;;;;3.90;2.72;;;34.20;69.20;;;;;;4955826;28;20204;-81
2022/08/02 10:17:32;;;;;;;4.57;2.70;;;34.50;70.10;;;;;;4966133;28;20280;-82
2022/08/02 10:19:59;;;;;;;3.78;2.50;;;34.60;65.90;;;;;;4967176;28;20236;-81
2022/08/02 10:22:33;;;;;;;3.22;2.53;;;33.80;66.90;;;;;;4973154;28;20201;-80
2022/08/02 10:25:20;;;;;;;4.80;2.97;;;33.40;68.00;;;;;;4972677;28;20256;-80
2022/08/02 10:27:48;;;;;;;3.80;2.78;;;32.90;68.80;;;;;;4973571;28;20299;-81
2022/08/02 10:30:41;;;;;;;2.80;2.60;;;32.60;71.00;;;;;;4964867;28;20252;-80
2022/08/02 10:36:18;;;;;;;5.47;2.42;;;32.40;74.20;;;;;;4973353;28;20331;-80
2022/08/02 10:38:54;;;;;;;2.90;2.58;;;32.20;73.30;;;;;;4953668;28;20643;-80
2022/08/02 10:41:54;;;;;;;3.60;2.60;;;32.00;73.00;;;;;;4960494;28;20241;-79
2022/08/02 10:45:14;;;;;;;11.50;3.20;;;31.50;72.40;;;;;;4899010;29;20692;-80
2022/08/02 10:48:04;;;;;;;7.25;3.22;;;31.20;75.40;;;;;;4898741;29;20298;-78
2022/08/02 10:50:47;;;;;;;5.25;2.80;;;31.60;78.00;;;;;;4906136;29;20290;-81
2022/08/02 10:53:36;;;;;;;3.20;2.90;;;31.60;74.20;;;;;;4911246;29;20231;-81
2022/08/02 10:56:05;;;;;;;5.38;3.05;;;31.70;74.60;;;;;;4900395;29;20283;-79
2022/08/02 10:58:35;;;;;;;5.82;3.10;;;31.80;76.30;;;;;;4894340;29;20207;-79
2022/08/02 11:04:02;;;;;;;4.03;3.17;;;32.20;78.40;;;;;;4891243;29;20192;-81
2022/08/02 11:07:12;;;;;;;7.47;2.63;;;32.70;70.50;;;;;;4912450;29;20239;-78
2022/08/02 11:09:41;;;;;;;6.22;2.72;;;32.90;70.30;;;;;;4897620;29;20203;-81
2022/08/02 11:12:16;;;;;;;4.57;3.08;;;33.40;71.80;;;;;;4914189;29;20276;-83
2022/08/02 11:14:56;;;;;;;5.03;3.10;;;33.30;69.70;;;;;;4912519;29;20294;-79
2022/08/02 11:17:23;;;;;;;4.93;3.08;;;33.00;69.70;;;;;;4894670;29;20235;-81
2022/08/02 11:20:09;;;;;;;5.07;3.42;;;32.70;73.50;;;;;;4927055;28;20731;-81
2022/08/02 11:22:52;;;;;;;4.72;3.25;;;32.50;73.60;;;;;;4968945;28;20296;-79
2022/08/02 11:25:22;;;;;;;4.03;3.40;;;31.90;72.70;;;;;;4966565;28;20676;-79
2022/08/02 11:28:10;;;;;;;4.38;3.25;;;31.60;74.50;;;;;;4964350;28;20561;-78
2022/08/02 11:30:38;;;;;;;8.15;3.55;;;31.40;75.40;;;;;;4967336;28;20202;-77
2022/08/02 11:33:05;;;;;;;4.35;3.22;;;31.40;74.20;;;;;;4950939;29;20231;-79
2022/08/02 11:35:36;;;;;;;9.90;3.70;;;31.80;73.30;;;;;;4935593;29;20229;-79
2022/08/02 11:38:15;;;;;;;4.20;3.40;;;32.30;73.60;;;;;;4936924;29;20237;-80
2022/08/02 11:40:46;;;;;;;7.95;3.60;;;33.00;68.40;;;;;;4952967;29;20285;-81
2022/08/02 11:43:25;;;;;;;3.47;3.17;;;33.30;69.40;;;;;;4952275;29;20225;-79
2022/08/02 11:45:55;;;;;;;5.47;3.05;;;33.80;69.10;;;;;;4936031;29;20738;-77
2022/08/02 11:48:34;;;;;;;4.05;3.03;;;33.50;67.90;;;;;;4925336;29;20203;-77
2022/08/02 11:51:16;;;;;;;4.22;2.95;;;33.30;68.20;;;;;;4953509;28;20277;-78
2022/08/02 11:53:56;;;;;;;5.53;3.20;;;32.60;70.20;;;;;;4951757;29;20261;-77
2022/08/02 11:56:38;;;;;;;6.05;3.38;;;32.30;72.50;;;;;;4950956;29;20285;-76
2022/08/02 11:59:09;;;;;;;9.50;4.20;;;31.90;72.10;;;;;;4935033;29;20328;-83
2022/08/02 12:01:46;;;;;;;9.20;3.88;;;31.70;72.90;;;;;;4933170;29;20194;-77
2022/08/02 12:04:20;;;;;;;9.18;3.60;;;31.40;75.50;;;;;;4953153;28;20275;-78
2022/08/02 12:06:57;;;;;;;5.97;3.45;;;30.90;74.70;;;;;;4970893;28;20213;-82
2022/08/02 12:09:26;;;;;;;9.07;3.78;;;30.60;78.50;;;;;;4958407;28;20309;-76
2022/08/02 12:11:54;;;;;;;8.98;3.88;;;31.00;78.20;;;;;;4971228;28;20242;-80
2022/08/02 12:14:23;;;;;;;5.38;3.63;;;31.60;77.10;;;;;;4951143;28;20218;-79
2022/08/02 12:19:37;;;;;;;5.90;3.65;;;32.70;72.90;;;;;;4969224;28;20190;-78
2022/08/02 12:22:18;;;;;;;5.53;3.60;;;32.50;70.30;;;;;;4970737;28;20200;-77
2022/08/02 12:24:52;;;;;;;5.15;3.55;;;32.30;73.60;;;;;;4967410;28;20201;-79
2022/08/02 12:27:31;;;;;;;4.97;3.53;;;32.20;72.40;;;;;;4975214;28;20245;-79
2022/08/02 12:30:10;;;;;;;6.28;4.07;;;31.80;73.10;;;;;;4957349;28;20284;-78
2022/08/02 12:32:38;;;;;;;4.07;3.20;;;31.20;75.70;;;;;;4971188;28;20212;-78
2022/08/02 12:35:18;;;;;;;5.57;3.47;;;31.00;76.40;;;;;;4973988;28;20542;-78
2022/08/02 12:37:53;;;;;;;4.78;3.35;;;30.90;76.70;;;;;;4957901;28;20201;-76
2022/08/02 12:40:43;;;;;;;5.95;3.55;;;30.60;76.80;;;;;;4975429;28;20293;-79
2022/08/02 12:43:21;;;;;;;6.68;3.55;;;30.50;79.90;;;;;;4974870;28;20206;-81
2022/08/02 12:45:54;;;;;;;8.80;4.00;;;30.40;80.20;;;;;;4968286;28;20453;-80
2022/08/02 12:48:35;;;;;;;8.77;4.07;;;30.30;80.90;;;;;;4968765;28;20229;-79
2022/08/02 12:51:41;;;;;;;6.13;3.90;;;30.50;80.00;;;;;;4965606;28;20209;-79
2022/08/02 12:54:27;;;;;;;5.18;3.65;;;30.80;78.70;;;;;;4970106;28;20297;-79
2022/08/02 12:57:12;;;;;;;7.10;4.07;;;31.10;77.70;;;;;;4970523;28;20252;-80
2022/08/02 12:59:51;;;;;;;6.20;4.22;;;31.20;76.30;;;;;;4959069;28;20240;-79
2022/08/02 13:02:37;;;;;;;4.40;3.50;;;31.00;78.70;;;;;;4971463;28;20197;-82
2022/08/02 13:05:17;;;;;;;6.85;3.55;;;31.00;79.40;;;;;;4984001;28;20229;-80
2022/08/02 13:08:26;;;;;;;12.50;4.80;;;31.20;80.40;;;;;;4955836;29;20195;-81
2022/08/02 13:10:56;;;;;;;6.75;4.32;;;31.50;80.50;;;;;;4945873;28;20603;-81
2022/08/02 13:13:23;;;;;;;5.63;3.90;;;31.60;77.20;;;;;;4974354;28;20280;-80
2022/08/02 13:15:50;;;;;;;4.88;3.90;;;32.00;76.50;;;;;;4955608;28;20667;-81
2022/08/02 13:18:28;;;;;;;14.57;4.95;;;32.40;75.80;;;;;;4996413;23;20224;-81
2022/08/02 13:21:04;;;;;;;8.25;4.18;;;32.80;73.80;;;;;;4987235;28;20551;-79
2022/08/02 13:23:31;;;;;;;7.53;4.20;;;33.30;73.30;;;;;;5004283;28;20200;-79
2022/08/02 13:26:21;;;;;;;5.82;3.75;;;33.90;71.20;;;;;;4974151;28;20219;-81